<?xml version='1.0' encoding='UTF-8'?>
<gpx xmlns="http://www.topografix.com/GPX/1/1" creator="www.balnam.be" version="1.1" xmlns:xsi="http://www.w3.org/2001/XMLSchema-instance" xsi:schemaLocation="http://www.topografix.com/GPX/1/1 http://www.topografix.com/GPX/1/1/gpx.xsd">
<trk>
<name>nwlfr40</name>
<cmt>s</cmt>
<desc>Fraire Sentier n°40 </desc>
<link href="https://chemins.be/fraire/sentier/40"/><trkseg>
<trkpt lat="50.261538" lon="4.506551"><time>2026-05-03T00:26:31Z</time></trkpt>
<trkpt lat="50.261179" lon="4.505821"><time>2026-05-03T00:36:31Z</time></trkpt>
</trkseg></trk>
<trk>
<name>nwlfr40</name>
<cmt>v</cmt>
<desc>Fraire Sentier n°40 </desc>
<link href="https://chemins.be/fraire/sentier/40"/><trkseg>
<trkpt lat="50.261179" lon="4.505821"><time>2026-05-03T00:36:31Z</time></trkpt>
<trkpt lat="50.261098" lon="4.505638"><time>2026-05-03T00:46:31Z</time></trkpt>
</trkseg></trk>
<trk>
<name>nwlfr40</name>
<cmt>b</cmt>
<desc>Fraire Sentier n°40 </desc>
<link href="https://chemins.be/fraire/sentier/40"/><trkseg>
<trkpt lat="50.261098" lon="4.505638"><time>2026-05-03T00:46:31Z</time></trkpt>
<trkpt lat="50.260964" lon="4.505217"><time>2026-05-03T00:56:31Z</time></trkpt>
</trkseg></trk>
<trk>
<name>nwlfr40</name>
<cmt>d</cmt>
<desc>Fraire Sentier n°40 </desc>
<link href="https://chemins.be/fraire/sentier/40"/><trkseg>
<trkpt lat="50.260964" lon="4.505217"><time>2026-05-03T00:56:31Z</time></trkpt>
<trkpt lat="50.260740" lon="4.504557"><time>2026-05-03T01:06:31Z</time></trkpt>
<trkpt lat="50.260490" lon="4.502775"><time>2026-05-03T01:16:31Z</time></trkpt>
<trkpt lat="50.260439" lon="4.500237"><time>2026-05-03T01:26:31Z</time></trkpt>
<trkpt lat="50.260134" lon="4.499563"><time>2026-05-03T01:36:31Z</time></trkpt>
</trkseg></trk>
<trk>
<name>nwlfr40</name>
<cmt>s</cmt>
<desc>Fraire Sentier n°40 </desc>
<link href="https://chemins.be/fraire/sentier/40"/><trkseg>
<trkpt lat="50.260134" lon="4.499563"><time>2026-05-03T01:36:31Z</time></trkpt>
<trkpt lat="50.259847" lon="4.499071"><time>2026-05-03T01:46:31Z</time></trkpt>
<trkpt lat="50.259857" lon="4.498707"><time>2026-05-03T01:56:31Z</time></trkpt>
</trkseg></trk>
<trk>
<name>nwlfr40</name>
<cmt>d</cmt>
<desc>Fraire Sentier n°40 </desc>
<link href="https://chemins.be/fraire/sentier/40"/><trkseg>
<trkpt lat="50.259857" lon="4.498707"><time>2026-05-03T01:56:31Z</time></trkpt>
<trkpt lat="50.259470" lon="4.498411"><time>2026-05-03T02:06:31Z</time></trkpt>
<trkpt lat="50.259537" lon="4.495536"><time>2026-05-03T02:16:31Z</time></trkpt>
<trkpt lat="50.259278" lon="4.493418"><time>2026-05-03T02:26:31Z</time></trkpt>
<trkpt lat="50.258804" lon="4.491327"><time>2026-05-03T02:36:31Z</time></trkpt>
<trkpt lat="50.257932" lon="4.491156"><time>2026-05-03T02:46:31Z</time></trkpt>
<trkpt lat="50.257447" lon="4.490622"><time>2026-05-03T02:56:31Z</time></trkpt>
<trkpt lat="50.256487" lon="4.488895"><time>2026-05-03T03:06:31Z</time></trkpt>
<trkpt lat="50.256181" lon="4.489063"><time>2026-05-03T03:16:31Z</time></trkpt>
<trkpt lat="50.255660" lon="4.488528"><time>2026-05-03T03:26:31Z</time></trkpt>
<trkpt lat="50.255318" lon="4.488836"><time>2026-05-03T03:36:31Z</time></trkpt>
</trkseg></trk>
<trk>
<name>nwlfr40</name>
<cmt>v</cmt>
<desc>Fraire Sentier n°40 </desc>
<link href="https://chemins.be/fraire/sentier/40"/><trkseg>
<trkpt lat="50.255318" lon="4.488836"><time>2026-05-03T03:36:31Z</time></trkpt>
<trkpt lat="50.254791" lon="4.488290"><time>2026-05-03T03:46:31Z</time></trkpt>
<trkpt lat="50.254439" lon="4.487617"><time>2026-05-03T03:56:31Z</time></trkpt>
</trkseg>
</trk>
</gpx>